createdAt,value
2023-04-13T00:02:24.682Z,98915.75
2023-04-13T00:04:52.628Z,98920.81
2023-04-13T00:07:19.590Z,98927.00
2023-04-13T00:09:47.579Z,98934.78
2023-04-13T00:12:16.104Z,98934.34
2023-04-13T00:14:44.308Z,98935.03
2023-04-13T00:17:11.331Z,98934.59
2023-04-13T00:19:40.618Z,98935.28
2023-04-13T00:22:09.886Z,98941.47
2023-04-13T00:24:37.224Z,98936.69
2023-04-13T00:27:05.066Z,98946.41
2023-04-13T00:29:32.614Z,98940.50
2023-04-13T00:31:59.444Z,98955.31
2023-04-13T00:34:26.629Z,98945.50
2023-04-13T00:36:54.244Z,98958.44
2023-04-13T00:39:23.394Z,98965.03
2023-04-13T00:41:53.563Z,98966.19
2023-04-13T00:44:21.993Z,98977.16
2023-04-13T00:46:51.200Z,98968.47
2023-04-13T00:49:18.788Z,98975.47
2023-04-13T00:51:45.936Z,98973.06
2023-04-13T00:54:17.046Z,98978.09
2023-04-13T00:56:54.709Z,98977.66
2023-04-13T00:59:23.010Z,98970.59
2023-04-13T01:01:56.809Z,98973.66
2023-04-13T01:04:28.166Z,98968.53
2023-04-13T01:07:20.458Z,98973.22
2023-04-13T01:09:52.697Z,98975.84
2023-04-13T01:12:24.394Z,98962.50
2023-04-13T01:15:18.911Z,98982.00
2023-04-13T01:17:54.538Z,98978.84
2023-04-13T01:20:22.835Z,98985.13
2023-04-13T01:22:56.777Z,98990.16
2023-04-13T01:25:40.882Z,98982.72
2023-04-13T01:28:10.151Z,98991.41
2023-04-13T01:30:39.000Z,98994.94
2023-04-13T01:33:06.979Z,99003.94
2023-04-13T01:35:34.518Z,98992.97
2023-04-13T01:38:01.578Z,99000.41
2023-04-13T01:40:30.546Z,98996.88
2023-04-13T01:42:58.212Z,99005.09
2023-04-13T01:45:37.351Z,99017.19
2023-04-13T01:48:32.288Z,99004.66
2023-04-13T01:51:06.024Z,99001.44
2023-04-13T01:53:38.798Z,99006.91
2023-04-13T01:56:06.703Z,99011.63
2023-04-13T01:58:35.938Z,99008.06
2023-04-13T02:01:09.703Z,99027.59
2023-04-13T02:03:38.971Z,98995.88
2023-04-13T02:06:07.602Z,99014.25
2023-04-13T02:08:37.305Z,99017.31
2023-04-13T02:11:04.718Z,99037.28
2023-04-13T02:13:31.731Z,99012.19
2023-04-13T02:15:59.462Z,99023.16
2023-04-13T02:18:26.737Z,99027.38
2023-04-13T02:21:03.775Z,99020.66
2023-04-13T02:23:32.077Z,99031.16
2023-04-13T02:25:59.385Z,99034.66
2023-04-13T02:28:30.336Z,99037.75
2023-04-13T02:30:59.999Z,99020.88
2023-04-13T02:33:33.005Z,99029.78
2023-04-13T02:36:04.010Z,99023.88
2023-04-13T02:38:32.232Z,99016.34
2023-04-13T02:41:00.756Z,99029.56
2023-04-13T02:43:29.025Z,99030.25
2023-04-13T02:45:59.565Z,99034.56
2023-04-13T02:48:27.076Z,99029.47
2023-04-13T02:50:54.774Z,99048.97
2023-04-13T02:53:22.288Z,99028.22
2023-04-13T02:55:54.409Z,99049.66
2023-04-13T02:58:23.730Z,99030.00
2023-04-13T03:00:51.028Z,99026.84
2023-04-13T03:03:19.364Z,99046.00
2023-04-13T03:05:47.423Z,99045.53
2023-04-13T03:08:14.605Z,99045.09
2023-04-13T03:10:41.758Z,99050.09
2023-04-13T03:13:11.744Z,99051.25
2023-04-13T03:15:38.608Z,99058.22
2023-04-13T03:18:05.586Z,99055.78
2023-04-13T03:20:32.968Z,99069.03
2023-04-13T03:23:01.926Z,99063.56
2023-04-13T03:25:29.278Z,99048.28
2023-04-13T03:27:56.527Z,99066.28
2023-04-13T03:30:23.513Z,99052.16
2023-04-13T03:32:52.414Z,99062.66
2023-04-13T03:35:20.641Z,99074.38
2023-04-13T03:37:48.856Z,99091.16
2023-04-13T03:40:15.744Z,99083.31
2023-04-13T03:42:44.008Z,99092.63
2023-04-13T03:45:13.567Z,99085.56
2023-04-13T03:47:40.857Z,99103.47
2023-04-13T03:50:09.016Z,99083.03
2023-04-13T03:52:36.718Z,99084.97
2023-04-13T03:55:04.205Z,99097.06
2023-04-13T03:57:31.151Z,99079.72
2023-04-13T03:59:58.258Z,99086.34
2023-04-13T04:02:25.560Z,99078.81
2023-04-13T04:04:52.886Z,99088.97
2023-04-13T04:07:23.455Z,99079.50
2023-04-13T04:09:51.491Z,99081.78
2023-04-13T04:12:18.672Z,99083.72
2023-04-13T04:14:45.548Z,99078.59
2023-04-13T04:17:12.418Z,99091.13
2023-04-13T04:19:39.394Z,99085.63
2023-04-13T04:22:09.870Z,99097.75
2023-04-13T04:24:37.856Z,99098.88
2023-04-13T04:27:06.227Z,99101.47
2023-04-13T04:29:36.116Z,99094.41
2023-04-13T04:32:04.525Z,99104.09
2023-04-13T04:34:32.201Z,99100.88
2023-04-13T04:37:03.103Z,99111.81
2023-04-13T04:39:33.160Z,99110.25
2023-04-13T04:42:05.963Z,99113.31
2023-04-13T04:44:37.620Z,99120.72
2023-04-13T04:47:04.502Z,99121.84
2023-04-13T04:49:31.675Z,99107.72
2023-04-13T04:51:58.825Z,99123.34
2023-04-13T04:54:27.090Z,99131.84
2023-04-13T04:56:58.315Z,99116.16
2023-04-13T04:59:26.537Z,99118.06
2023-04-13T05:01:53.959Z,99123.09
2023-04-13T05:04:21.417Z,99116.00
2023-04-13T05:06:48.479Z,99119.06
2023-04-13T05:09:15.551Z,99118.59
2023-04-13T05:11:44.696Z,99122.81
2023-04-13T05:14:11.965Z,99121.56
2023-04-13T05:16:38.927Z,99128.94
2023-04-13T05:19:09.182Z,99129.75
2023-04-13T05:21:38.260Z,99126.22
2023-04-13T05:24:06.767Z,99142.63
2023-04-13T05:26:36.079Z,99135.56
2023-04-13T05:29:04.786Z,99135.09
2023-04-13T05:31:31.715Z,99137.03
2023-04-13T05:33:58.595Z,99137.03
2023-04-13T05:36:26.834Z,99136.25
2023-04-13T05:38:54.204Z,99133.50
2023-04-13T05:41:21.324Z,99139.78
2023-04-13T05:43:51.602Z,99150.72
2023-04-13T05:46:18.653Z,99147.97
2023-04-13T05:48:46.102Z,99149.56
2023-04-13T05:51:13.086Z,99153.91
2023-04-13T05:53:40.827Z,99144.59
2023-04-13T05:56:10.280Z,99148.09
2023-04-13T05:58:37.381Z,99150.50
2023-04-13T06:01:07.958Z,99154.81
2023-04-13T06:03:35.097Z,99147.44
2023-04-13T06:06:04.991Z,99162.34
2023-04-13T06:08:35.049Z,99154.63
2023-04-13T06:11:03.442Z,99169.09
2023-04-13T06:13:32.621Z,99167.63
2023-04-13T06:16:00.008Z,99177.44
2023-04-13T06:18:27.376Z,99170.84
2023-04-13T06:20:54.670Z,99172.41
2023-04-13T06:23:22.369Z,99183.81
2023-04-13T06:25:50.774Z,99188.97
2023-04-13T06:28:17.671Z,99189.78
2023-04-13T06:30:45.614Z,99202.78
2023-04-13T06:33:12.890Z,99202.78
2023-04-13T06:35:43.779Z,99198.59
2023-04-13T06:38:12.222Z,99206.91
2023-04-13T06:40:39.460Z,99217.19
2023-04-13T06:43:13.477Z,99225.53
2023-04-13T06:45:47.856Z,99218.59
2023-04-13T06:48:14.946Z,99219.03
2023-04-13T06:50:41.965Z,99236.41
2023-04-13T06:53:10.712Z,99234.56
2023-04-13T06:55:37.684Z,99235.50
2023-04-13T06:58:06.280Z,99236.44
2023-04-13T07:00:34.546Z,99235.78
2023-04-13T07:03:02.332Z,99251.16
2023-04-13T07:05:30.527Z,99250.16
2023-04-13T07:07:57.603Z,99251.09
2023-04-13T07:10:24.760Z,99247.69
2023-04-13T07:12:52.242Z,99259.56
2023-04-13T07:15:19.471Z,99270.28
2023-04-13T07:17:46.507Z,99266.88
2023-04-13T07:20:14.653Z,99285.84
2023-04-13T07:22:41.996Z,99270.78
2023-04-13T07:25:09.328Z,99281.19
2023-04-13T07:27:36.247Z,99280.19
2023-04-13T07:30:06.422Z,99281.53
2023-04-13T07:32:33.423Z,99279.75
2023-04-13T07:35:02.704Z,99293.69
2023-04-13T07:37:29.930Z,99274.28
2023-04-13T07:39:56.956Z,99280.91
2023-04-13T07:42:25.326Z,99292.22
2023-04-13T07:44:56.366Z,99285.03
2023-04-13T07:47:23.299Z,99293.72
2023-04-13T07:49:50.657Z,99298.75
2023-04-13T07:52:20.041Z,99297.69
2023-04-13T07:54:47.235Z,99297.56
2023-04-13T07:57:14.431Z,99289.78
2023-04-13T07:59:41.324Z,99293.91
2023-04-13T08:02:11.223Z,99301.88
2023-04-13T08:04:39.576Z,99297.41
2023-04-13T08:07:10.202Z,99303.22
2023-04-13T08:09:44.574Z,99304.31
2023-04-13T08:12:11.636Z,99306.97
2023-04-13T08:14:38.549Z,99299.47
2023-04-13T08:17:06.344Z,99298.25
2023-04-13T08:19:34.167Z,99308.03
2023-04-13T08:22:03.746Z,99293.53
2023-04-13T08:24:31.182Z,99305.81
2023-04-13T08:26:59.518Z,99308.63
2023-04-13T08:29:27.880Z,99306.78
2023-04-13T08:31:56.728Z,99302.28
2023-04-13T08:34:23.671Z,99302.59
2023-04-13T08:36:51.124Z,99315.81
2023-04-13T08:39:20.829Z,99303.53
2023-04-13T08:41:48.702Z,99301.78
2023-04-13T08:44:15.954Z,99295.75
2023-04-13T08:46:45.889Z,99313.47
2023-04-13T08:49:13.892Z,99317.47
2023-04-13T08:51:43.950Z,99314.84
2023-04-13T08:54:13.236Z,99332.19
2023-04-13T08:56:46.904Z,99332.66
2023-04-13T08:59:16.438Z,99330.31
2023-04-13T09:01:46.776Z,99342.09
2023-04-13T09:04:18.550Z,99345.16
2023-04-13T09:06:50.444Z,99343.81
2023-04-13T09:09:19.244Z,99349.53
2023-04-13T09:11:48.445Z,99350.09
2023-04-13T09:14:24.073Z,99348.09
2023-04-13T09:16:51.414Z,99358.09
2023-04-13T09:19:30.393Z,99334.59
2023-04-13T09:22:00.188Z,99343.69
2023-04-13T09:24:38.619Z,99350.53
2023-04-13T09:27:05.781Z,99355.94
2023-04-13T09:29:33.998Z,99338.94
2023-04-13T09:32:07.198Z,99337.59
2023-04-13T09:34:36.864Z,99359.44
2023-04-13T09:37:13.947Z,99336.91
2023-04-13T09:39:41.671Z,99343.94
2023-04-13T09:42:12.503Z,99346.78
2023-04-13T09:47:20.269Z,99323.13
2023-04-13T09:49:47.343Z,99342.66
2023-04-13T09:52:23.019Z,99336.97
2023-04-13T09:54:54.481Z,99335.22
2023-04-13T09:57:29.693Z,99347.00
2023-04-13T10:00:14.451Z,99351.19
2023-04-13T10:02:42.585Z,99334.53
2023-04-13T10:05:10.357Z,99334.94
2023-04-13T10:07:38.273Z,99337.09
2023-04-13T10:10:06.924Z,99333.41
2023-04-13T10:12:36.968Z,99352.47
2023-04-13T10:15:15.226Z,99328.41
2023-04-13T10:17:57.932Z,99336.19
2023-04-13T10:20:26.670Z,99333.03
2023-04-13T10:22:55.077Z,99321.84
2023-04-13T10:25:32.626Z,99324.41
2023-04-13T10:28:01.506Z,99327.50
2023-04-13T10:30:29.250Z,99339.56
2023-04-13T10:33:09.948Z,99341.13
2023-04-13T10:35:39.430Z,99337.06
2023-04-13T10:38:09.422Z,99348.16
2023-04-13T10:40:47.593Z,99333.03
2023-04-13T10:43:27.854Z,99345.03
2023-04-13T10:46:12.150Z,99335.28
2023-04-13T10:48:54.115Z,99352.75
2023-04-13T10:51:21.253Z,99346.13
2023-04-13T10:53:48.243Z,99350.97
2023-04-13T10:56:19.400Z,99351.38
2023-04-13T10:58:53.789Z,99341.44
2023-04-13T11:01:21.039Z,99345.34
2023-04-13T11:04:01.277Z,99332.22
2023-04-13T11:06:42.369Z,99338.59
2023-04-13T11:09:12.958Z,99338.13
2023-04-13T11:11:42.827Z,99332.19
2023-04-13T11:14:09.734Z,99336.94
2023-04-13T11:16:46.291Z,99335.31
2023-04-13T11:19:15.776Z,99338.88
2023-04-13T11:21:45.096Z,99340.41
2023-04-13T11:24:14.108Z,99338.81
2023-04-13T11:26:42.992Z,99341.19
2023-04-13T11:29:18.665Z,99347.53
2023-04-13T11:31:45.560Z,99349.81
2023-04-13T11:34:13.294Z,99334.75
2023-04-13T11:36:41.187Z,99353.00
2023-04-13T11:39:11.231Z,99349.50
2023-04-13T11:41:42.052Z,99344.28
2023-04-13T11:44:12.319Z,99347.13
2023-04-13T11:46:39.501Z,99350.34
2023-04-13T11:49:10.340Z,99349.56
2023-04-13T11:51:41.784Z,99358.25
2023-04-13T11:54:09.135Z,99351.13
2023-04-13T11:56:36.730Z,99345.16
2023-04-13T11:59:03.876Z,99345.88
2023-04-13T12:01:34.429Z,99349.09
2023-04-13T12:04:14.448Z,99346.72
2023-04-13T12:06:49.957Z,99347.50
2023-04-13T12:09:21.037Z,99347.88
2023-04-13T12:12:11.970Z,99351.78
2023-04-13T12:17:35.556Z,99366.91
2023-04-13T12:20:03.735Z,99370.94
2023-04-13T12:22:55.196Z,99351.56
2023-04-13T12:25:35.694Z,99368.19
2023-04-13T12:28:03.603Z,99369.00
2023-04-13T12:30:32.945Z,99367.00
2023-04-13T12:33:01.049Z,99366.63
2023-04-13T12:35:29.320Z,99355.19
2023-04-13T12:37:57.980Z,99366.72
2023-04-13T12:40:25.430Z,99366.75
2023-04-13T12:42:52.267Z,99368.75
2023-04-13T12:45:23.679Z,99382.25
2023-04-13T12:47:52.987Z,99385.09
2023-04-13T12:50:19.962Z,99383.91
2023-04-13T12:52:47.357Z,99385.09
2023-04-13T12:55:14.325Z,99406.53
2023-04-13T12:57:45.039Z,99394.63
2023-04-13T13:00:13.847Z,99398.53
2023-04-13T13:02:41.021Z,99389.00
2023-04-13T13:05:09.587Z,99390.19
2023-04-13T13:07:37.177Z,99390.59
2023-04-13T13:10:09.567Z,99404.56
2023-04-13T13:12:42.477Z,99402.59
2023-04-13T13:15:15.130Z,99409.72
2023-04-13T13:17:43.339Z,99418.47
2023-04-13T13:20:13.363Z,99411.28
2023-04-13T13:22:42.357Z,99413.28
2023-04-13T13:25:10.499Z,99411.28
2023-04-13T13:30:10.127Z,99407.75
2023-04-13T13:32:39.283Z,99424.03
2023-04-13T13:35:08.819Z,99428.81
2023-04-13T13:37:36.138Z,99416.06
2023-04-13T13:40:13.484Z,99425.56
2023-04-13T13:45:12.453Z,99412.66
2023-04-13T13:47:39.721Z,99434.94
2023-04-13T13:50:07.191Z,99432.16
2023-04-13T13:52:34.082Z,99430.25
2023-04-13T13:55:03.925Z,99430.72
2023-04-13T13:57:31.137Z,99447.88
2023-04-13T13:59:58.353Z,99438.28
2023-04-13T14:02:27.421Z,99414.28
2023-04-13T14:04:54.334Z,99419.75
2023-04-13T14:07:24.281Z,99421.50
2023-04-13T14:09:51.258Z,99416.84
2023-04-13T14:12:18.074Z,99416.50
2023-04-13T14:14:46.423Z,99412.50
2023-04-13T14:17:13.352Z,99411.72
2023-04-13T14:19:41.844Z,99442.19
2023-04-13T14:22:10.049Z,99449.22
2023-04-13T14:24:37.008Z,99436.38
2023-04-13T14:27:03.919Z,99416.06
2023-04-13T14:29:31.950Z,99413.25
2023-04-13T14:31:58.953Z,99409.19
2023-04-13T14:34:25.953Z,99432.16
2023-04-13T14:36:54.305Z,99412.75
2023-04-13T14:39:21.360Z,99425.41
2023-04-13T14:41:49.508Z,99411.72
2023-04-13T14:44:16.431Z,99417.53
2023-04-13T14:46:43.713Z,99429.94
2023-04-13T14:49:11.954Z,99412.91
2023-04-13T14:51:42.167Z,99407.75
2023-04-13T14:54:09.351Z,99405.72
2023-04-13T14:56:40.422Z,99412.06
2023-04-13T14:59:07.384Z,99404.88
2023-04-13T15:01:35.858Z,99386.50
2023-04-13T15:04:03.413Z,99400.00
2023-04-13T15:06:30.437Z,99399.19
2023-04-13T15:09:00.750Z,99396.41
2023-04-13T15:11:29.063Z,99407.94
2023-04-13T15:13:55.980Z,99400.69
2023-04-13T15:16:22.937Z,99407.03
2023-04-13T15:18:49.917Z,99392.66
2023-04-13T15:21:16.902Z,99390.91
2023-04-13T15:23:43.825Z,99385.75
2023-04-13T15:26:17.364Z,99388.50
2023-04-13T15:28:45.424Z,99391.53
2023-04-13T15:31:13.821Z,99394.66
2023-04-13T15:33:40.823Z,99386.47
2023-04-13T15:36:09.794Z,99408.50
2023-04-13T15:38:36.604Z,99397.75
2023-04-13T15:41:03.606Z,99399.63
2023-04-13T15:43:30.604Z,99416.03
2023-04-13T15:45:59.336Z,99411.72
2023-04-13T15:48:26.554Z,99420.06
2023-04-13T15:51:00.484Z,99408.91
2023-04-13T15:53:28.972Z,99421.13
2023-04-13T15:55:57.615Z,99423.03
2023-04-13T15:58:25.944Z,99413.50
2023-04-13T16:01:08.014Z,99409.97
2023-04-13T16:03:36.468Z,99391.84
2023-04-13T16:06:04.038Z,99399.41
2023-04-13T16:08:31.428Z,99400.94
2023-04-13T16:10:58.851Z,99399.69
2023-04-13T16:13:37.570Z,99392.13
2023-04-13T16:16:14.860Z,99403.25
2023-04-13T16:18:44.605Z,99408.41
2023-04-13T16:21:12.716Z,99410.00
2023-04-13T16:23:40.960Z,99407.22
2023-04-13T16:26:11.669Z,99416.78
2023-04-13T16:28:38.723Z,99420.00
2023-04-13T16:31:10.025Z,99412.06
2023-04-13T16:33:36.982Z,99421.66
2023-04-13T16:36:03.949Z,99418.47
2023-04-13T16:38:31.839Z,99427.19
2023-04-13T16:40:58.980Z,99420.81
2023-04-13T16:43:26.135Z,99415.94
2023-04-13T16:45:54.111Z,99417.03
2023-04-13T16:48:23.367Z,99418.09
2023-04-13T16:50:59.200Z,99410.88
2023-04-13T16:53:27.051Z,99417.16
2023-04-13T16:55:55.561Z,99414.03
2023-04-13T16:58:22.429Z,99421.25
2023-04-13T17:00:51.224Z,99421.72
2023-04-13T17:03:18.415Z,99420.63
2023-04-13T17:05:46.339Z,99415.91
2023-04-13T17:08:15.627Z,99424.63
2023-04-13T17:10:44.442Z,99418.59
2023-04-13T17:13:11.478Z,99422.97
2023-04-13T17:15:38.677Z,99415.06
2023-04-13T17:18:05.682Z,99415.13
2023-04-13T17:20:32.567Z,99421.91
2023-04-13T17:23:00.453Z,99422.72
2023-04-13T17:25:27.594Z,99410.78
2023-04-13T17:27:55.166Z,99417.09
2023-04-13T17:30:22.873Z,99409.94
2023-04-13T17:32:50.298Z,99417.09
2023-04-13T17:35:17.302Z,99416.72
2023-04-13T17:37:44.176Z,99406.41
2023-04-13T17:40:11.818Z,99419.13
2023-04-13T17:42:38.644Z,99412.75
2023-04-13T17:45:06.150Z,99416.75
2023-04-13T17:47:40.479Z,99416.34
2023-04-13T17:50:07.959Z,99418.31
2023-04-13T17:52:35.816Z,99423.03
2023-04-13T17:55:05.480Z,99414.66
2023-04-13T17:57:34.077Z,99411.06
2023-04-13T18:00:01.492Z,99410.97
2023-04-13T18:02:28.703Z,99412.09
2023-04-13T18:04:55.807Z,99415.56
2023-04-13T18:07:23.307Z,99412.34
2023-04-13T18:09:50.448Z,99414.66
2023-04-13T18:12:17.856Z,99412.28
2023-04-13T18:14:44.777Z,99408.75
2023-04-13T18:17:11.605Z,99406.34
2023-04-13T18:19:38.576Z,99411.50
2023-04-13T18:22:05.524Z,99413.09
2023-04-13T18:24:32.938Z,99401.13
2023-04-13T18:26:59.825Z,99417.28
2023-04-13T18:29:26.674Z,99413.72
2023-04-13T18:31:54.216Z,99412.81
2023-04-13T18:34:21.254Z,99416.38
2023-04-13T18:36:48.144Z,99425.38
2023-04-13T18:39:17.609Z,99430.84
2023-04-13T18:41:46.242Z,99428.38
2023-04-13T18:44:13.482Z,99425.91
2023-04-13T18:46:41.266Z,99425.03
2023-04-13T18:49:08.221Z,99427.34
2023-04-13T18:51:37.765Z,99423.31
2023-04-13T18:54:04.843Z,99417.72
2023-04-13T18:56:32.104Z,99418.00
2023-04-13T18:58:59.098Z,99419.91
2023-04-13T19:01:26.455Z,99418.19
2023-04-13T19:03:54.016Z,99420.06
2023-04-13T19:06:21.328Z,99421.16
2023-04-13T19:08:48.223Z,99423.41
2023-04-13T19:11:16.411Z,99426.03
2023-04-13T19:13:45.617Z,99420.41
2023-04-13T19:16:14.064Z,99418.31
2023-04-13T19:18:41.151Z,99418.25
2023-04-13T19:21:11.385Z,99422.94
2023-04-13T19:23:40.256Z,99425.28
2023-04-13T19:26:07.465Z,99429.56
2023-04-13T19:28:34.248Z,99425.50
2023-04-13T19:31:02.624Z,99431.34
2023-04-13T19:33:29.485Z,99425.41
2023-04-13T19:35:59.927Z,99428.34
2023-04-13T19:38:27.177Z,99417.56
2023-04-13T19:41:04.752Z,99424.19
2023-04-13T19:43:31.822Z,99432.31
2023-04-13T19:45:59.845Z,99431.31
2023-04-13T19:48:27.900Z,99423.72
2023-04-13T19:50:54.911Z,99422.56
2023-04-13T19:53:22.252Z,99423.56
2023-04-13T19:55:53.006Z,99424.59
2023-04-13T19:58:22.385Z,99424.50
2023-04-13T20:00:50.683Z,99423.16
2023-04-13T20:03:20.598Z,99429.78
2023-04-13T20:05:48.358Z,99429.53
2023-04-13T20:08:16.559Z,99427.66
2023-04-13T20:10:44.908Z,99430.03
2023-04-13T20:13:14.829Z,99432.38
2023-04-13T20:15:44.472Z,99431.53
2023-04-13T20:18:11.945Z,99429.91
2023-04-13T20:20:42.577Z,99429.84
2023-04-13T20:23:11.153Z,99419.59
2023-04-13T20:25:39.002Z,99421.78
2023-04-13T20:28:07.365Z,99419.63
2023-04-13T20:30:35.674Z,99420.59
2023-04-13T20:33:07.084Z,99422.41
2023-04-13T20:35:35.445Z,99415.50
2023-04-13T20:38:02.375Z,99429.69
2023-04-13T20:40:29.436Z,99429.31
2023-04-13T20:42:58.622Z,99419.06
2023-04-13T20:45:30.740Z,99427.22
2023-04-13T20:50:48.735Z,99420.56
2023-04-13T20:53:17.488Z,99427.25
2023-04-13T20:55:44.520Z,99423.59
2023-04-13T20:58:13.906Z,99411.47
2023-04-13T21:00:43.035Z,99425.91
2023-04-13T21:03:10.475Z,99416.47
2023-04-13T21:05:37.729Z,99426.13
2023-04-13T21:08:04.649Z,99410.00
2023-04-13T21:10:31.860Z,99413.56
2023-04-13T21:13:00.891Z,99415.94
2023-04-13T21:15:27.721Z,99405.38
2023-04-13T21:17:55.891Z,99410.78
2023-04-13T21:20:22.952Z,99411.44
2023-04-13T21:22:49.916Z,99405.88
2023-04-13T21:25:16.785Z,99409.78
2023-04-13T21:27:43.697Z,99412.09
2023-04-13T21:30:11.117Z,99405.44
2023-04-13T21:32:38.190Z,99409.78
2023-04-13T21:35:06.849Z,99406.31
2023-04-13T21:37:33.717Z,99411.09
2023-04-13T21:40:02.393Z,99406.72
2023-04-13T21:42:29.282Z,99406.38
2023-04-13T21:44:57.215Z,99402.81
2023-04-13T21:47:26.572Z,99405.16
2023-04-13T21:49:53.439Z,99398.88
2023-04-13T21:52:24.377Z,99402.53
2023-04-13T21:54:51.856Z,99401.38
2023-04-13T21:57:20.025Z,99400.63
2023-04-13T21:59:46.830Z,99395.91
2023-04-13T22:02:14.815Z,99393.94
2023-04-13T22:04:43.132Z,99388.88
2023-04-13T22:07:09.981Z,99395.09
2023-04-13T22:09:37.008Z,99395.84
2023-04-13T22:12:04.637Z,99388.72
2023-04-13T22:14:31.991Z,99389.53
2023-04-13T22:17:00.649Z,99389.16
2023-04-13T22:19:27.694Z,99381.56
2023-04-13T22:21:56.389Z,99375.09
2023-04-13T22:24:24.783Z,99386.91
2023-04-13T22:26:51.928Z,99384.97
2023-04-13T22:29:18.812Z,99386.88
2023-04-13T22:31:46.105Z,99379.03
2023-04-13T22:34:13.102Z,99376.25
2023-04-13T22:36:41.423Z,99364.44
2023-04-13T22:39:08.301Z,99363.19
2023-04-13T22:41:37.218Z,99352.88
2023-04-13T22:44:04.809Z,99350.69
2023-04-13T22:46:31.710Z,99355.69
2023-04-13T22:48:59.140Z,99358.09
2023-04-13T22:51:29.874Z,99345.47
2023-04-13T22:53:58.143Z,99357.22
2023-04-13T22:56:25.190Z,99347.00
2023-04-13T22:58:54.992Z,99351.63
2023-04-13T23:01:21.954Z,99346.91
2023-04-13T23:03:49.925Z,99349.66
2023-04-13T23:06:16.869Z,99350.03
2023-04-13T23:08:43.743Z,99349.25
2023-04-13T23:11:11.973Z,99349.16
2023-04-13T23:13:41.936Z,99344.81
2023-04-13T23:16:08.879Z,99351.84
2023-04-13T23:18:35.909Z,99349.09
2023-04-13T23:21:13.151Z,99340.03
2023-04-13T23:23:40.386Z,99341.97
2023-04-13T23:26:07.460Z,99343.59
2023-04-13T23:28:34.291Z,99341.91
2023-04-13T23:31:08.676Z,99335.59
2023-04-13T23:33:36.532Z,99340.31
2023-04-13T23:36:04.199Z,99335.53
2023-04-13T23:38:32.270Z,99332.97
2023-04-13T23:40:59.307Z,99332.81
2023-04-13T23:43:26.305Z,99336.00
2023-04-13T23:45:53.947Z,99337.44
2023-04-13T23:48:26.376Z,99323.66
2023-04-13T23:50:53.535Z,99328.75
2023-04-13T23:53:20.477Z,99325.13
2023-04-13T23:55:47.342Z,99328.16
2023-04-13T23:58:14.178Z,99326.41
